Time;durP1;ratioP1;P1;durP2;ratioP2;P2;SDS_P1;SDS_P2;PMS_P1;PMS_P2;Temp;Humidity;BMP_temperature;BMP_pressure;BME280_temperature;BME280_humidity;BME280_pressure;Samples;Min_cycle;Max_cycle;Signal;HPM_P1;HPM_P2
2022/05/01 04:02:04;;;;;;;38.50;31.50;;;10.70;99.90;;;;;;5232687;23;20490;-68
2022/05/01 04:04:31;;;;;;;41.90;31.60;;;10.70;99.90;;;;;;4977497;28;20450;-67
2022/05/01 04:06:58;;;;;;;38.97;31.70;;;10.70;99.90;;;;;;4976723;28;20462;-67
2022/05/01 04:09:27;;;;;;;35.53;31.40;;;10.70;99.90;;;;;;4977011;28;20451;-67
2022/05/01 04:11:53;;;;;;;37.93;31.67;;;10.80;99.90;;;;;;4991140;28;20489;-67
2022/05/01 04:14:20;;;;;;;41.50;32.43;;;10.70;99.90;;;;;;4996412;28;20981;-68
2022/05/01 04:16:47;;;;;;;38.43;33.93;;;10.70;99.90;;;;;;4996624;28;20544;-67
2022/05/01 04:19:15;;;;;;;36.97;31.87;;;10.70;99.90;;;;;;4996583;28;20458;-67
2022/05/01 04:21:42;;;;;;;40.00;32.50;;;10.70;99.90;;;;;;4996814;28;20871;-67
2022/05/01 04:24:09;;;;;;;35.27;30.77;;;10.70;99.90;;;;;;4996143;28;20513;-67
2022/05/01 04:26:36;;;;;;;38.70;31.23;;;10.80;99.90;;;;;;4996298;28;21013;-68
2022/05/01 04:31:46;;;;;;;36.10;29.73;;;10.80;99.90;;;;;;4996400;28;21060;-67
2022/05/01 04:34:14;;;;;;;41.53;33.10;;;10.80;99.90;;;;;;4996498;28;20962;-68
2022/05/01 04:36:42;;;;;;;39.00;31.00;;;10.80;99.90;;;;;;4996717;28;20461;-68
2022/05/01 04:39:08;;;;;;;39.30;31.80;;;10.80;99.90;;;;;;4995007;28;20454;-67
2022/05/01 04:41:35;;;;;;;35.93;28.60;;;10.80;99.90;;;;;;4996076;28;20474;-67
2022/05/01 04:44:02;;;;;;;34.20;30.10;;;10.80;99.90;;;;;;4995815;28;20845;-68
2022/05/01 04:46:28;;;;;;;37.40;31.43;;;10.80;99.90;;;;;;4996012;28;20481;-68
2022/05/01 04:48:56;;;;;;;41.63;31.40;;;10.70;99.90;;;;;;4995967;28;20458;-68
2022/05/01 04:51:24;;;;;;;41.33;32.33;;;10.70;99.90;;;;;;4995829;28;20482;-67
2022/05/01 04:53:51;;;;;;;42.83;31.67;;;10.70;99.90;;;;;;4995896;28;20485;-68
2022/05/01 04:59:02;;;;;;;41.07;33.83;;;10.70;99.90;;;;;;4996604;28;20421;-67
2022/05/01 05:01:28;;;;;;;43.20;32.80;;;10.70;99.90;;;;;;4996082;28;20634;-69
2022/05/01 05:03:55;;;;;;;40.23;33.33;;;10.70;99.90;;;;;;4995976;28;20450;-68
2022/05/01 05:06:23;;;;;;;41.00;32.63;;;10.70;99.90;;;;;;4996521;28;20455;-68
2022/05/01 05:11:36;;;;;;;39.03;32.37;;;10.80;99.90;;;;;;4997768;28;20980;-68
2022/05/01 05:14:04;;;;;;;41.93;33.13;;;10.80;99.90;;;;;;4998088;28;20485;-68
2022/05/01 05:16:31;;;;;;;37.40;30.77;;;10.90;99.90;;;;;;4997531;28;20458;-67
2022/05/01 05:18:57;;;;;;;36.33;31.83;;;11.00;99.90;;;;;;4998047;28;20454;-67
2022/05/01 05:21:24;;;;;;;37.77;30.97;;;11.00;99.90;;;;;;4997956;28;20484;-72
2022/05/01 05:23:52;;;;;;;36.80;31.97;;;11.10;99.90;;;;;;4998834;28;20462;-67
2022/05/01 05:26:19;;;;;;;37.80;32.10;;;11.00;99.90;;;;;;4998027;28;20481;-67
2022/05/01 05:28:46;;;;;;;41.47;31.33;;;11.00;99.90;;;;;;4997766;28;20461;-68
2022/05/01 05:31:12;;;;;;;37.20;31.17;;;11.00;99.90;;;;;;4997545;28;20474;-67
2022/05/01 05:33:39;;;;;;;37.60;32.60;;;10.90;99.90;;;;;;4997655;28;20864;-68
2022/05/01 05:36:06;;;;;;;41.13;31.97;;;11.00;99.90;;;;;;4996138;28;20477;-69
2022/05/01 05:38:33;;;;;;;37.77;29.40;;;11.00;99.90;;;;;;4996223;28;20462;-67
2022/05/01 05:41:01;;;;;;;38.93;31.13;;;11.10;99.90;;;;;;4996444;28;20601;-68
2022/05/01 05:43:28;;;;;;;35.33;30.53;;;11.20;99.90;;;;;;4995994;28;20981;-68
2022/05/01 05:45:55;;;;;;;35.60;30.93;;;11.20;99.90;;;;;;4995568;28;20461;-68
2022/05/01 05:48:21;;;;;;;33.30;29.80;;;11.30;99.90;;;;;;5002251;28;20450;-67
2022/05/01 05:50:48;;;;;;;34.80;31.10;;;11.30;99.90;;;;;;5007973;28;20815;-67
2022/05/01 05:53:15;;;;;;;42.10;32.43;;;11.40;99.90;;;;;;5000010;28;20478;-67
2022/05/01 05:55:41;;;;;;;35.70;31.70;;;11.40;99.90;;;;;;4999551;28;20465;-68
2022/05/01 05:58:10;;;;;;;35.20;29.77;;;11.40;99.90;;;;;;4999155;28;20454;-68
2022/05/01 06:00:37;;;;;;;37.57;30.80;;;11.40;99.90;;;;;;4998782;28;20553;-66
2022/05/01 06:03:04;;;;;;;33.23;29.70;;;11.40;99.90;;;;;;4998055;28;20454;-67
2022/05/01 06:05:30;;;;;;;33.70;29.90;;;11.50;99.90;;;;;;4998107;28;20457;-67
2022/05/01 06:07:57;;;;;;;36.93;31.60;;;11.40;99.90;;;;;;4997598;28;20457;-67
2022/05/01 06:10:24;;;;;;;35.00;31.27;;;11.40;99.90;;;;;;4997715;28;20465;-67
2022/05/01 06:12:51;;;;;;;35.87;31.80;;;11.40;99.90;;;;;;4997508;28;20477;-67
2022/05/01 06:15:19;;;;;;;33.60;30.10;;;11.50;99.90;;;;;;4997427;28;20457;-67
2022/05/01 06:17:46;;;;;;;34.90;29.87;;;11.50;99.90;;;;;;4996972;28;20950;-67
2022/05/01 06:20:13;;;;;;;31.83;28.43;;;11.60;99.90;;;;;;4997198;28;20457;-67
2022/05/01 06:22:40;;;;;;;34.10;28.97;;;11.60;99.90;;;;;;4997443;28;20465;-68
2022/05/01 06:25:07;;;;;;;38.03;28.80;;;11.70;99.90;;;;;;4997527;28;20461;-68
2022/05/01 06:27:35;;;;;;;29.87;26.63;;;11.80;99.90;;;;;;4997140;28;20823;-67
2022/05/01 06:30:02;;;;;;;31.73;28.43;;;11.90;99.90;;;;;;4997184;28;20464;-67
2022/05/01 06:32:30;;;;;;;34.03;30.47;;;12.00;99.90;;;;;;4997035;28;20488;-66
2022/05/01 06:34:56;;;;;;;33.60;28.20;;;12.00;99.90;;;;;;4997171;28;20453;-66
2022/05/01 06:37:23;;;;;;;35.47;29.07;;;12.10;99.90;;;;;;4997328;28;20457;-66
2022/05/01 06:39:51;;;;;;;32.73;29.20;;;12.30;99.90;;;;;;4997302;28;20812;-67
2022/05/01 06:42:17;;;;;;;35.10;29.20;;;12.30;99.90;;;;;;4997000;28;20478;-67
2022/05/01 06:44:44;;;;;;;33.10;29.50;;;12.50;99.90;;;;;;4997238;28;20462;-67
2022/05/01 06:47:13;;;;;;;31.03;27.83;;;12.50;99.90;;;;;;4996837;28;20458;-66
2022/05/01 06:49:41;;;;;;;30.70;26.90;;;12.50;99.90;;;;;;4997105;28;20454;-65
2022/05/01 06:52:08;;;;;;;33.20;29.10;;;12.70;99.90;;;;;;4996703;28;21013;-67
2022/05/01 06:54:34;;;;;;;30.63;27.53;;;12.70;99.90;;;;;;4996902;28;20489;-68
2022/05/01 06:57:01;;;;;;;32.77;29.37;;;12.70;99.90;;;;;;4996949;28;20461;-68
2022/05/01 06:59:28;;;;;;;31.80;28.67;;;12.70;99.90;;;;;;4996666;28;20458;-67
2022/05/01 07:01:54;;;;;;;30.30;26.23;;;12.80;99.90;;;;;;4995575;28;20486;-67
2022/05/01 07:04:21;;;;;;;29.87;26.30;;;12.90;99.90;;;;;;4995703;28;20454;-67
2022/05/01 07:06:49;;;;;;;28.37;25.20;;;13.10;99.90;;;;;;4996554;28;20517;-67
2022/05/01 07:09:16;;;;;;;30.70;26.47;;;13.10;99.90;;;;;;4996516;28;20454;-66
2022/05/01 07:11:43;;;;;;;29.33;26.37;;;13.10;99.90;;;;;;4996060;28;20843;-67
2022/05/01 07:14:10;;;;;;;32.10;25.57;;;13.30;99.90;;;;;;4996213;28;20482;-65
2022/05/01 07:16:37;;;;;;;29.40;25.87;;;13.10;99.90;;;;;;4996305;28;20817;-67
2022/05/01 07:19:03;;;;;;;35.03;28.60;;;13.10;99.90;;;;;;4996547;28;20462;-67
2022/05/01 07:21:30;;;;;;;30.90;27.73;;;12.90;99.90;;;;;;4996520;28;20474;-67
2022/05/01 07:23:58;;;;;;;32.03;26.57;;;12.90;99.90;;;;;;4997018;28;20457;-67
2022/05/01 07:26:25;;;;;;;27.60;24.57;;;13.00;99.90;;;;;;4996598;28;20793;-66
2022/05/01 07:28:52;;;;;;;30.97;26.30;;;13.10;99.90;;;;;;4996724;28;20457;-66
2022/05/01 07:31:19;;;;;;;26.90;24.20;;;13.10;99.90;;;;;;4996797;28;20546;-68
2022/05/01 07:33:45;;;;;;;29.17;25.33;;;13.20;99.90;;;;;;4996301;28;21013;-67
2022/05/01 07:36:13;;;;;;;28.70;25.60;;;13.20;99.90;;;;;;4996687;28;20862;-67
2022/05/01 07:38:39;;;;;;;28.40;25.40;;;13.20;99.90;;;;;;4996134;28;20468;-66
2022/05/01 07:41:07;;;;;;;28.63;25.50;;;13.30;99.90;;;;;;4996211;28;21041;-66
2022/05/01 07:43:34;;;;;;;27.10;24.43;;;13.40;99.90;;;;;;4996543;28;20461;-67
2022/05/01 07:46:02;;;;;;;27.13;24.37;;;13.50;99.90;;;;;;4996512;28;20509;-67
2022/05/01 07:48:29;;;;;;;25.47;23.00;;;13.60;99.90;;;;;;4996616;28;20465;-67
2022/05/01 07:50:55;;;;;;;26.80;24.03;;;13.60;99.90;;;;;;4996313;28;20478;-68
2022/05/01 07:53:22;;;;;;;25.43;22.87;;;13.60;99.90;;;;;;4996488;28;20477;-68
2022/05/01 07:55:49;;;;;;;24.97;22.40;;;13.80;99.90;;;;;;4996474;28;20461;-67
2022/05/01 07:58:19;;;;;;;26.40;23.90;;;13.80;99.90;;;;;;4996887;28;20461;-67
2022/05/01 08:00:46;;;;;;;26.57;24.00;;;13.90;99.90;;;;;;4996203;28;20489;-68
2022/05/01 08:05:56;;;;;;;25.53;22.93;;;13.90;99.90;;;;;;4996249;28;20490;-68
2022/05/01 08:08:23;;;;;;;25.83;22.80;;;14.00;99.90;;;;;;4996073;28;20458;-66
2022/05/01 08:10:50;;;;;;;23.73;21.43;;;14.00;99.90;;;;;;4995882;28;20550;-66
2022/05/01 08:13:18;;;;;;;23.87;21.40;;;14.20;99.90;;;;;;4996001;28;20477;-67
2022/05/01 08:15:45;;;;;;;22.73;20.53;;;14.10;99.90;;;;;;4996760;28;20469;-64
2022/05/01 08:21:08;;;;;;;22.63;20.40;;;14.20;99.90;;;;;;4996936;28;20504;-64
2022/05/01 08:23:36;;;;;;;25.33;22.47;;;14.10;99.90;;;;;;4996265;28;20525;-65
2022/05/01 08:26:03;;;;;;;24.03;21.63;;;14.20;99.90;;;;;;4996097;28;20438;-65
2022/05/01 08:28:31;;;;;;;24.67;22.07;;;14.40;99.90;;;;;;4995913;28;20461;-64
2022/05/01 08:30:59;;;;;;;23.93;21.53;;;14.60;99.90;;;;;;4995343;28;20482;-64
2022/05/01 08:33:26;;;;;;;25.80;23.27;;;14.80;99.90;;;;;;4995943;28;20490;-65
2022/05/01 08:35:52;;;;;;;26.40;23.70;;;15.00;99.90;;;;;;5007111;28;20454;-64
2022/05/01 08:38:20;;;;;;;23.93;21.40;;;15.00;99.90;;;;;;4999621;28;20461;-64
2022/05/01 08:40:49;;;;;;;24.73;22.37;;;15.10;99.90;;;;;;4995364;28;20477;-64
2022/05/01 08:43:17;;;;;;;24.10;21.80;;;15.20;99.90;;;;;;4995763;28;20822;-64
2022/05/01 08:45:59;;;;;;;20.93;18.93;;;15.30;99.90;;;;;;4995261;28;20469;-64
2022/05/01 08:48:30;;;;;;;20.67;18.70;;;15.30;99.90;;;;;;4995945;28;20478;-63
2022/05/01 08:50:59;;;;;;;23.50;19.30;;;15.30;99.90;;;;;;4995319;28;20581;-63
2022/05/01 08:53:29;;;;;;;20.63;18.60;;;15.40;99.90;;;;;;4995168;28;20485;-65
2022/05/01 08:55:56;;;;;;;19.97;18.23;;;15.50;99.90;;;;;;4995379;28;20454;-65
2022/05/01 08:58:24;;;;;;;20.20;18.07;;;15.60;99.90;;;;;;4995374;28;20458;-68
2022/05/01 09:00:53;;;;;;;18.57;16.87;;;15.70;99.90;;;;;;4995150;28;20855;-65
2022/05/01 09:03:20;;;;;;;21.27;19.37;;;15.80;99.90;;;;;;4995248;28;20435;-65
2022/05/01 09:05:47;;;;;;;20.73;18.60;;;16.00;99.90;;;;;;4995058;28;20458;-65
2022/05/01 09:08:13;;;;;;;21.27;19.10;;;16.10;99.90;;;;;;4995268;28;20461;-64
2022/05/01 09:10:43;;;;;;;21.67;19.57;;;16.30;99.90;;;;;;4995590;28;20532;-64
2022/05/01 09:13:09;;;;;;;20.30;18.27;;;16.50;99.90;;;;;;4996595;28;20461;-64
2022/05/01 09:15:40;;;;;;;21.10;19.00;;;16.50;99.90;;;;;;4996914;28;20476;-65
2022/05/01 09:18:09;;;;;;;20.40;18.40;;;16.80;99.90;;;;;;4997160;28;20438;-65
2022/05/01 09:20:39;;;;;;;19.57;17.67;;;17.10;99.90;;;;;;4997671;28;20891;-65
2022/05/01 09:23:06;;;;;;;20.23;18.23;;;17.30;99.90;;;;;;4997505;28;20458;-64
2022/05/01 09:25:34;;;;;;;19.83;18.13;;;17.60;99.90;;;;;;4997403;28;20947;-65
2022/05/01 09:28:19;;;;;;;21.70;19.70;;;17.30;99.90;;;;;;5001410;28;20457;-64
2022/05/01 09:30:46;;;;;;;20.33;18.20;;;17.30;99.90;;;;;;5001314;28;20493;-65
2022/05/01 09:33:19;;;;;;;18.80;17.20;;;17.30;99.90;;;;;;5001187;28;20453;-65
2022/05/01 09:35:48;;;;;;;20.57;18.70;;;17.20;99.90;;;;;;5001847;28;20887;-64
2022/05/01 09:38:17;;;;;;;20.83;18.83;;;17.30;99.90;;;;;;5000896;28;20489;-65
2022/05/01 09:40:45;;;;;;;18.90;17.20;;;17.30;99.90;;;;;;5000011;28;20982;-64
2022/05/01 09:43:34;;;;;;;20.60;18.70;;;17.20;99.90;;;;;;4999045;28;20477;-64
2022/05/01 09:46:14;;;;;;;19.77;17.93;;;17.10;99.90;;;;;;4999333;28;20442;-64
2022/05/01 09:48:44;;;;;;;18.83;17.17;;;17.30;99.90;;;;;;4998840;28;20441;-64
2022/05/01 09:51:18;;;;;;;19.07;17.27;;;17.40;99.90;;;;;;4998385;28;20986;-64
2022/05/01 09:53:46;;;;;;;20.60;18.40;;;17.70;99.90;;;;;;4999588;28;20473;-64
2022/05/01 09:56:13;;;;;;;21.13;19.07;;;17.90;99.90;;;;;;5000848;28;20458;-64
2022/05/01 09:58:42;;;;;;;22.63;20.43;;;18.00;99.90;;;;;;5001430;28;20458;-64
2022/05/01 10:01:11;;;;;;;20.97;18.97;;;17.90;99.90;;;;;;5000789;28;21069;-64
2022/05/01 10:03:42;;;;;;;21.30;19.33;;;17.90;99.90;;;;;;5001428;28;20454;-64
2022/05/01 10:06:12;;;;;;;19.80;18.00;;;18.10;99.90;;;;;;5002033;28;20445;-64
2022/05/01 10:08:40;;;;;;;18.90;17.13;;;18.20;99.90;;;;;;5001981;28;20453;-64
2022/05/01 10:11:08;;;;;;;19.30;17.50;;;18.40;99.90;;;;;;5001072;28;21057;-68
2022/05/01 10:13:36;;;;;;;18.77;17.07;;;18.50;99.90;;;;;;5003056;28;20516;-64
2022/05/01 10:16:06;;;;;;;18.03;16.43;;;18.60;99.90;;;;;;5001360;28;20540;-65
2022/05/01 10:18:33;;;;;;;15.90;14.40;;;18.20;99.90;;;;;;4999164;28;20512;-64
2022/05/01 10:21:02;;;;;;;17.10;15.30;;;18.20;99.90;;;;;;4998444;28;20480;-64
2022/05/01 10:23:29;;;;;;;16.77;15.20;;;18.20;99.90;;;;;;4998356;28;20446;-64
2022/05/01 10:26:00;;;;;;;16.80;15.30;;;18.20;99.90;;;;;;4998241;28;20526;-64
2022/05/01 10:28:46;;;;;;;16.60;15.00;;;18.30;99.90;;;;;;4998124;28;20434;-64
2022/05/01 10:34:28;;;;;;;14.03;12.80;;;18.00;99.90;;;;;;4986741;28;20561;-63
2022/05/01 10:37:19;;;;;;;15.90;14.40;;;18.00;99.90;;;;;;4998028;28;20740;-65
2022/05/01 10:39:47;;;;;;;14.17;12.83;;;17.90;99.90;;;;;;4997977;28;20510;-66
2022/05/01 10:42:32;;;;;;;13.00;11.90;;;18.10;99.90;;;;;;4997208;28;20477;-63
2022/05/01 10:44:59;;;;;;;12.93;11.70;;;18.20;99.90;;;;;;4998142;28;20439;-64
2022/05/01 10:47:37;;;;;;;14.40;12.93;;;18.30;99.90;;;;;;4997893;28;20455;-63
2022/05/01 10:50:08;;;;;;;14.20;12.70;;;18.30;99.90;;;;;;4997827;28;20442;-63
2022/05/01 10:53:03;;;;;;;14.47;13.23;;;18.70;99.90;;;;;;4997674;28;20481;-64
2022/05/01 10:55:45;;;;;;;13.97;12.77;;;19.30;98.60;;;;;;4997326;28;21041;-63
2022/05/01 10:58:23;;;;;;;15.00;13.03;;;19.70;98.80;;;;;;4997591;28;20442;-63
2022/05/01 11:00:51;;;;;;;15.60;14.30;;;20.00;98.00;;;;;;4997634;28;20609;-63
2022/05/01 11:03:27;;;;;;;14.33;13.00;;;20.20;97.90;;;;;;4997626;28;20437;-63
2022/05/01 11:05:55;;;;;;;15.70;14.33;;;20.20;98.90;;;;;;4997631;28;20450;-63
2022/05/01 11:08:27;;;;;;;14.37;13.03;;;20.90;95.10;;;;;;4997619;28;20461;-63
2022/05/01 11:10:55;;;;;;;15.67;14.37;;;21.10;93.00;;;;;;4996789;28;20478;-63
2022/05/01 11:13:25;;;;;;;14.93;13.53;;;21.10;92.20;;;;;;4997443;28;20457;-65
2022/05/01 11:15:53;;;;;;;15.67;14.23;;;20.90;92.30;;;;;;4996961;28;20489;-65
2022/05/01 11:18:28;;;;;;;16.00;14.50;;;20.40;93.50;;;;;;4997025;28;20961;-65
2022/05/01 11:20:56;;;;;;;13.57;12.20;;;19.90;94.30;;;;;;5000089;28;20478;-66
2022/05/01 11:23:35;;;;;;;14.37;13.07;;;19.70;94.50;;;;;;5011570;28;20462;-65
2022/05/01 11:26:13;;;;;;;15.00;13.77;;;19.50;93.90;;;;;;4997718;28;20453;-65
2022/05/01 11:29:08;;;;;;;14.57;13.37;;;19.30;95.80;;;;;;4996624;28;20438;-65
2022/05/01 11:31:46;;;;;;;14.93;13.53;;;19.30;95.50;;;;;;4996636;28;20470;-66
2022/05/01 11:34:34;;;;;;;24.57;19.97;;;19.30;94.80;;;;;;4996615;28;20477;-69
2022/05/01 11:37:02;;;;;;;14.10;12.90;;;19.50;94.00;;;;;;4991722;28;20462;-66
2022/05/01 11:40:02;;;;;;;14.63;13.23;;;19.50;93.40;;;;;;4996683;28;20450;-66
2022/05/01 11:42:36;;;;;;;14.73;12.67;;;19.50;93.30;;;;;;4996738;28;20506;-65
2022/05/01 11:45:05;;;;;;;14.43;13.07;;;19.50;92.90;;;;;;4996627;28;20438;-65
2022/05/01 11:47:33;;;;;;;14.20;13.00;;;19.50;91.80;;;;;;4996449;28;20489;-65
2022/05/01 11:50:00;;;;;;;14.07;12.60;;;19.60;92.60;;;;;;4995813;28;20461;-66
2022/05/01 11:52:27;;;;;;;13.47;12.27;;;19.50;93.80;;;;;;4996318;28;20474;-69
2022/05/01 11:54:55;;;;;;;14.13;12.97;;;19.60;91.80;;;;;;4996509;28;20478;-66
2022/05/01 12:02:58;;;;;;;13.10;11.90;;;19.50;92.80;;;;;;4996331;28;20421;-65
2022/05/01 12:05:25;;;;;;;12.77;11.50;;;19.70;92.00;;;;;;4996489;28;20457;-66
2022/05/01 12:07:54;;;;;;;12.00;10.80;;;19.80;90.90;;;;;;4996433;28;20823;-66
2022/05/01 12:10:21;;;;;;;13.17;11.87;;;19.90;92.50;;;;;;4997719;28;20461;-65
2022/05/01 12:12:47;;;;;;;14.30;13.00;;;20.00;91.80;;;;;;4997674;28;20450;-65
2022/05/01 12:15:15;;;;;;;13.30;12.00;;;19.80;94.20;;;;;;4997625;28;20484;-65
2022/05/01 12:17:43;;;;;;;13.87;12.60;;;19.80;93.40;;;;;;4998255;28;20450;-64
2022/05/01 12:20:11;;;;;;;14.90;13.43;;;19.90;94.10;;;;;;4999730;28;20454;-65
2022/05/01 12:22:38;;;;;;;14.90;13.37;;;19.80;93.80;;;;;;4999007;28;20458;-65
2022/05/01 12:25:07;;;;;;;14.50;13.10;;;19.50;93.80;;;;;;4999281;28;20512;-64
2022/05/01 12:27:35;;;;;;;13.63;12.43;;;19.40;93.00;;;;;;4997747;28;20935;-63
2022/05/01 12:30:05;;;;;;;14.20;12.80;;;19.40;93.40;;;;;;4995981;28;20890;-64
2022/05/01 12:32:33;;;;;;;13.80;12.43;;;19.60;92.90;;;;;;4996569;28;20505;-65
2022/05/01 12:35:01;;;;;;;13.83;12.43;;;19.90;93.30;;;;;;4997754;28;20480;-65
2022/05/01 12:37:34;;;;;;;15.00;13.70;;;20.20;94.40;;;;;;4996628;28;20457;-64
2022/05/01 12:40:04;;;;;;;14.10;12.90;;;20.20;93.40;;;;;;4995367;28;20478;-65
2022/05/01 12:45:35;;;;;;;13.20;12.00;;;20.40;93.20;;;;;;4995444;28;20429;-65
2022/05/01 12:48:04;;;;;;;11.90;10.90;;;20.40;93.80;;;;;;4995361;28;20492;-64
2022/05/01 12:50:32;;;;;;;13.67;11.77;;;20.50;94.70;;;;;;4995232;28;20820;-65
2022/05/01 12:53:01;;;;;;;13.50;12.40;;;20.60;92.70;;;;;;4995169;28;20464;-64
2022/05/01 12:55:33;;;;;;;13.17;11.97;;;20.60;91.90;;;;;;4995014;28;20478;-65
2022/05/01 12:58:01;;;;;;;14.10;13.00;;;20.00;91.10;;;;;;4994910;28;20464;-66
2022/05/01 13:00:35;;;;;;;11.80;10.80;;;19.40;92.70;;;;;;4993742;28;20931;-65
2022/05/01 13:03:23;;;;;;;12.30;11.30;;;19.20;93.40;;;;;;4994964;28;20476;-64
2022/05/01 13:06:04;;;;;;;12.23;11.13;;;19.10;94.50;;;;;;4995482;28;20470;-65
2022/05/01 13:08:32;;;;;;;12.13;11.03;;;19.20;93.60;;;;;;4995194;28;20442;-64
2022/05/01 13:11:16;;;;;;;12.57;11.57;;;19.20;92.80;;;;;;4995126;28;20485;-65
2022/05/01 13:13:45;;;;;;;16.40;14.70;;;19.10;93.80;;;;;;4994935;28;20446;-65
2022/05/01 13:16:13;;;;;;;16.73;15.23;;;19.20;96.50;;;;;;4994926;28;20478;-64
2022/05/01 13:18:41;;;;;;;15.70;14.30;;;19.20;97.20;;;;;;4994827;28;20492;-64
2022/05/01 13:21:08;;;;;;;17.83;16.10;;;19.30;97.40;;;;;;4995429;28;20505;-66
2022/05/01 13:23:35;;;;;;;16.80;15.30;;;19.30;97.40;;;;;;4995089;28;20457;-64
2022/05/01 13:26:02;;;;;;;15.67;14.30;;;19.30;97.90;;;;;;4994730;28;20454;-65
2022/05/01 13:28:29;;;;;;;15.97;14.60;;;19.30;98.30;;;;;;4994617;28;20461;-65
2022/05/01 13:30:56;;;;;;;16.23;14.90;;;19.20;98.70;;;;;;4994934;28;20497;-64
2022/05/01 13:33:23;;;;;;;16.53;15.13;;;19.30;97.20;;;;;;4994858;28;20493;-65
2022/05/01 13:35:51;;;;;;;15.53;14.17;;;19.10;97.50;;;;;;4994922;28;20510;-64
2022/05/01 13:38:18;;;;;;;16.07;14.73;;;18.90;99.00;;;;;;4994659;28;20497;-64
2022/05/01 13:46:14;;;;;;;16.17;14.77;;;18.60;99.90;;;;;;4994916;28;20422;-64
2022/05/01 13:48:41;;;;;;;16.30;14.80;;;18.80;99.90;;;;;;4994648;28;20947;-64
2022/05/01 13:51:09;;;;;;;14.80;13.60;;;19.10;99.60;;;;;;4994470;28;20474;-65
2022/05/01 13:53:36;;;;;;;15.63;14.33;;;19.30;98.40;;;;;;4994449;28;20466;-65
2022/05/01 13:56:02;;;;;;;16.03;14.63;;;19.50;98.50;;;;;;4994383;28;20473;-64
2022/05/01 13:58:29;;;;;;;14.63;13.07;;;19.60;99.60;;;;;;4994455;28;20480;-65
2022/05/01 14:00:56;;;;;;;14.77;13.40;;;19.70;97.30;;;;;;4994175;28;20485;-65
2022/05/01 14:03:23;;;;;;;15.40;13.90;;;19.80;98.80;;;;;;4994207;28;20977;-65
2022/05/01 14:05:50;;;;;;;15.60;14.37;;;19.80;96.60;;;;;;4994425;28;20450;-64
2022/05/01 14:08:18;;;;;;;15.77;14.33;;;19.70;95.60;;;;;;4994610;28;20461;-65
2022/05/01 14:10:45;;;;;;;15.97;14.57;;;19.70;96.90;;;;;;4994555;28;20477;-64
2022/05/01 14:13:12;;;;;;;16.57;15.27;;;19.90;97.60;;;;;;4999825;28;20453;-65
2022/05/01 14:15:39;;;;;;;16.17;14.87;;;20.00;97.10;;;;;;5005239;28;20478;-65
2022/05/01 14:18:09;;;;;;;15.73;14.23;;;19.70;95.80;;;;;;5004509;28;20454;-64
2022/05/01 14:20:36;;;;;;;14.83;13.43;;;19.40;96.50;;;;;;4998585;28;20485;-64
2022/05/01 14:23:06;;;;;;;15.37;14.17;;;19.00;97.40;;;;;;4998265;28;20453;-64
2022/05/01 14:25:34;;;;;;;15.43;14.23;;;18.80;98.10;;;;;;4998430;28;20882;-65
2022/05/01 14:28:01;;;;;;;14.60;13.33;;;18.70;99.90;;;;;;4998090;28;20457;-64
2022/05/01 14:30:31;;;;;;;14.37;12.87;;;18.80;99.10;;;;;;4997872;28;20469;-65
2022/05/01 14:33:03;;;;;;;14.60;13.30;;;19.00;98.70;;;;;;4998867;28;20447;-65
2022/05/01 14:35:34;;;;;;;15.00;13.80;;;19.20;99.80;;;;;;4997730;28;20466;-64
2022/05/01 14:38:07;;;;;;;13.47;12.17;;;19.50;98.30;;;;;;4999756;28;20457;-65
2022/05/01 14:40:38;;;;;;;15.70;14.40;;;19.70;99.10;;;;;;5009255;28;20474;-65
2022/05/01 14:43:11;;;;;;;14.10;12.70;;;19.70;97.50;;;;;;5000193;28;20443;-65
2022/05/01 14:45:42;;;;;;;14.40;13.10;;;19.90;97.90;;;;;;4997833;28;20851;-64
2022/05/01 14:48:23;;;;;;;13.40;12.30;;;20.00;97.10;;;;;;4997878;28;20478;-65
2022/05/01 14:50:54;;;;;;;13.17;11.97;;;20.10;95.50;;;;;;5000375;28;20528;-64
2022/05/01 14:53:21;;;;;;;13.30;12.17;;;20.20;96.80;;;;;;5005234;28;20442;-65
2022/05/01 14:55:51;;;;;;;14.53;13.17;;;20.20;95.60;;;;;;5002260;28;20488;-64
2022/05/01 15:06:30;;;;;;;15.97;14.70;;;19.60;96.20;;;;;;4997267;28;20407;-65
2022/05/01 15:09:00;;;;;;;17.40;15.90;;;19.30;96.80;;;;;;4997461;28;20453;-65
2022/05/01 15:11:29;;;;;;;16.17;14.57;;;19.10;97.00;;;;;;4997301;28;21017;-65
2022/05/01 15:13:56;;;;;;;16.47;14.97;;;18.70;96.60;;;;;;4997239;28;20489;-65
2022/05/01 15:16:30;;;;;;;13.53;12.43;;;18.60;97.90;;;;;;4997268;28;20843;-65
2022/05/01 15:19:09;;;;;;;13.53;12.33;;;18.50;96.70;;;;;;4997166;28;20497;-64
2022/05/01 15:24:37;;;;;;;15.27;13.63;;;18.70;98.00;;;;;;4996642;28;20418;-65
2022/05/01 15:27:09;;;;;;;13.27;12.07;;;18.60;98.60;;;;;;5004978;28;20500;-64
2022/05/01 15:29:46;;;;;;;13.90;11.43;;;18.80;99.90;;;;;;5005216;28;20438;-66
2022/05/01 15:32:17;;;;;;;12.50;11.60;;;18.90;98.50;;;;;;4996773;28;20478;-64
2022/05/01 15:34:46;;;;;;;12.37;11.37;;;19.00;97.30;;;;;;4997328;28;20478;-65
2022/05/01 15:37:15;;;;;;;12.93;11.73;;;19.20;97.40;;;;;;4996590;28;20489;-65
2022/05/01 15:39:47;;;;;;;12.13;11.03;;;19.20;97.30;;;;;;4996652;28;20469;-64
2022/05/01 15:42:18;;;;;;;12.00;11.00;;;19.20;95.20;;;;;;4996243;28;20474;-65
2022/05/01 15:44:48;;;;;;;10.80;10.00;;;19.20;95.10;;;;;;4996470;28;20435;-64
2022/05/01 15:47:16;;;;;;;12.23;11.20;;;19.10;95.50;;;;;;4996504;28;21002;-64
2022/05/01 15:55:16;;;;;;;10.60;9.70;;;19.40;94.80;;;;;;4996486;28;20414;-64
2022/05/01 15:57:46;;;;;;;11.93;10.83;;;19.40;94.90;;;;;;4996494;28;20458;-65
2022/05/01 16:00:16;;;;;;;11.33;9.90;;;19.50;94.20;;;;;;4996609;28;20545;-64
2022/05/01 16:02:45;;;;;;;12.27;11.20;;;19.50;93.70;;;;;;4996698;28;20445;-64
2022/05/01 16:05:12;;;;;;;12.63;11.40;;;19.40;94.00;;;;;;4996461;28;20458;-64
2022/05/01 16:07:43;;;;;;;11.53;10.47;;;19.30;95.10;;;;;;4996190;28;20962;-66
2022/05/01 16:10:14;;;;;;;11.83;10.73;;;19.20;94.00;;;;;;4996152;28;20461;-65
2022/05/01 16:13:00;;;;;;;11.57;10.60;;;19.10;94.40;;;;;;4996154;28;20449;-65
2022/05/01 16:15:41;;;;;;;13.30;12.13;;;19.00;95.50;;;;;;4995718;28;20531;-65
2022/05/01 16:18:21;;;;;;;12.40;11.40;;;18.80;95.90;;;;;;4995865;28;20438;-65
2022/05/01 16:20:55;;;;;;;12.87;11.67;;;18.60;96.30;;;;;;4996089;28;20560;-65
2022/05/01 16:23:33;;;;;;;12.83;11.20;;;18.30;97.30;;;;;;4995826;28;20805;-64
2022/05/01 16:26:02;;;;;;;10.90;10.00;;;18.20;97.70;;;;;;4995918;28;20438;-65
2022/05/01 16:28:33;;;;;;;11.60;10.67;;;18.10;98.30;;;;;;4995879;28;20496;-65
2022/05/01 16:31:04;;;;;;;12.37;10.73;;;18.20;98.60;;;;;;4996099;28;20477;-64
2022/05/01 16:33:35;;;;;;;13.00;11.80;;;18.20;98.10;;;;;;4995351;28;20892;-64
2022/05/01 16:36:04;;;;;;;13.07;11.80;;;18.20;97.40;;;;;;4995462;28;20457;-64
2022/05/01 16:38:32;;;;;;;11.13;10.20;;;18.10;97.50;;;;;;4995601;28;20516;-65
2022/05/01 16:41:00;;;;;;;10.77;9.87;;;18.10;98.50;;;;;;4995481;28;20473;-63
2022/05/01 16:43:28;;;;;;;12.50;11.30;;;18.00;98.40;;;;;;4995864;28;20943;-65
2022/05/01 16:45:58;;;;;;;11.70;10.70;;;17.90;97.90;;;;;;4995318;28;21000;-64
2022/05/01 16:48:27;;;;;;;10.10;9.30;;;17.90;98.30;;;;;;4995432;28;20438;-64
2022/05/01 16:50:57;;;;;;;11.40;10.50;;;17.80;98.30;;;;;;4996272;28;20486;-64
2022/05/01 16:53:27;;;;;;;11.37;10.27;;;17.80;97.90;;;;;;4995694;28;20461;-66
2022/05/01 16:55:55;;;;;;;11.70;10.80;;;17.80;98.60;;;;;;4995333;28;20481;-64
2022/05/01 16:58:24;;;;;;;11.10;10.20;;;17.60;98.70;;;;;;4995181;28;20513;-65
2022/05/01 17:00:55;;;;;;;11.73;10.83;;;17.60;99.30;;;;;;4994954;28;20564;-63
2022/05/01 17:03:32;;;;;;;14.77;13.47;;;17.60;99.30;;;;;;4994751;28;20439;-64
2022/05/01 17:06:05;;;;;;;12.93;11.73;;;17.50;99.40;;;;;;4995041;28;20434;-63
2022/05/01 17:08:59;;;;;;;12.60;11.60;;;17.40;99.90;;;;;;4995005;28;20446;-64
2022/05/01 17:11:37;;;;;;;12.00;10.80;;;17.40;99.90;;;;;;4994645;28;20557;-63
2022/05/01 17:14:38;;;;;;;12.53;11.40;;;17.40;99.90;;;;;;5001159;28;20469;-63
2022/05/01 17:17:16;;;;;;;12.30;11.30;;;17.40;99.90;;;;;;4967619;28;20554;-63
2022/05/01 17:19:47;;;;;;;12.00;11.00;;;17.40;99.90;;;;;;5001620;28;20445;-63
2022/05/01 17:22:22;;;;;;;13.47;12.27;;;17.30;99.90;;;;;;5000295;28;20478;-64
2022/05/01 17:24:54;;;;;;;13.17;11.97;;;17.30;99.90;;;;;;4999564;28;20449;-63
2022/05/01 17:27:25;;;;;;;12.93;11.83;;;17.20;99.90;;;;;;5001393;28;20503;-63
2022/05/01 17:30:08;;;;;;;13.18;12.07;;;17.10;99.90;;;;;;5003852;28;20453;-64